sensor_id;sensor_type;location;lat;lon;timestamp;P1;durP1;ratioP1;P2;durP2;ratioP2
14247;SDS011;7208;49.826;6.004;2022-11-20T00:01:12;6.60;;;5.90;;
14247;SDS011;7208;49.826;6.004;2022-11-20T00:03:38;9.07;;;6.47;;
14247;SDS011;7208;49.826;6.004;2022-11-20T00:06:05;6.10;;;5.60;;
14247;SDS011;7208;49.826;6.004;2022-11-20T00:08:31;6.97;;;6.03;;
14247;SDS011;7208;49.826;6.004;2022-11-20T00:11:01;6.30;;;5.70;;
14247;SDS011;7208;49.826;6.004;2022-11-20T00:13:27;6.17;;;5.57;;
14247;SDS011;7208;49.826;6.004;2022-11-20T00:15:57;6.87;;;5.83;;
14247;SDS011;7208;49.826;6.004;2022-11-20T00:18:23;5.93;;;5.40;;
14247;SDS011;7208;49.826;6.004;2022-11-20T00:20:49;6.37;;;5.80;;
14247;SDS011;7208;49.826;6.004;2022-11-20T00:23:15;6.77;;;6.03;;
14247;SDS011;7208;49.826;6.004;2022-11-20T00:25:41;6.77;;;5.97;;
14247;SDS011;7208;49.826;6.004;2022-11-20T00:28:07;6.93;;;6.33;;
14247;SDS011;7208;49.826;6.004;2022-11-20T00:30:33;7.37;;;6.57;;
14247;SDS011;7208;49.826;6.004;2022-11-20T00:32:59;7.53;;;6.17;;
14247;SDS011;7208;49.826;6.004;2022-11-20T00:35:25;6.83;;;6.23;;
14247;SDS011;7208;49.826;6.004;2022-11-20T00:37:51;7.33;;;6.63;;
14247;SDS011;7208;49.826;6.004;2022-11-20T00:40:17;6.47;;;5.80;;
14247;SDS011;7208;49.826;6.004;2022-11-20T00:42:43;6.60;;;5.93;;
14247;SDS011;7208;49.826;6.004;2022-11-20T00:45:09;6.13;;;5.23;;
14247;SDS011;7208;49.826;6.004;2022-11-20T00:47:35;6.37;;;5.83;;
14247;SDS011;7208;49.826;6.004;2022-11-20T00:50:02;6.13;;;5.50;;
14247;SDS011;7208;49.826;6.004;2022-11-20T00:52:28;5.50;;;5.00;;
14247;SDS011;7208;49.826;6.004;2022-11-20T00:54:54;5.07;;;4.67;;
14247;SDS011;7208;49.826;6.004;2022-11-20T00:57:19;6.40;;;5.83;;
14247;SDS011;7208;49.826;6.004;2022-11-20T00:59:46;6.07;;;5.47;;
14247;SDS011;7208;49.826;6.004;2022-11-20T01:02:11;4.70;;;4.30;;
14247;SDS011;7208;49.826;6.004;2022-11-20T01:04:38;4.03;;;3.73;;
14247;SDS011;7208;49.826;6.004;2022-11-20T01:07:03;5.27;;;4.43;;
14247;SDS011;7208;49.826;6.004;2022-11-20T01:09:30;5.63;;;4.33;;
14247;SDS011;7208;49.826;6.004;2022-11-20T01:11:56;4.67;;;4.27;;
14247;SDS011;7208;49.826;6.004;2022-11-20T01:14:22;4.90;;;4.30;;
14247;SDS011;7208;49.826;6.004;2022-11-20T01:16:49;5.53;;;4.90;;
14247;SDS011;7208;49.826;6.004;2022-11-20T01:19:17;4.90;;;4.50;;
14247;SDS011;7208;49.826;6.004;2022-11-20T01:21:43;4.53;;;4.13;;
14247;SDS011;7208;49.826;6.004;2022-11-20T01:24:11;5.80;;;4.97;;
14247;SDS011;7208;49.826;6.004;2022-11-20T01:26:39;5.90;;;4.90;;
14247;SDS011;7208;49.826;6.004;2022-11-20T01:29:06;4.43;;;3.90;;
14247;SDS011;7208;49.826;6.004;2022-11-20T01:31:33;4.70;;;4.30;;
14247;SDS011;7208;49.826;6.004;2022-11-20T01:34:01;5.53;;;5.03;;
14247;SDS011;7208;49.826;6.004;2022-11-20T01:36:28;5.57;;;5.07;;
14247;SDS011;7208;49.826;6.004;2022-11-20T01:38:55;6.23;;;5.63;;
14247;SDS011;7208;49.826;6.004;2022-11-20T01:41:21;7.27;;;6.10;;
14247;SDS011;7208;49.826;6.004;2022-11-20T01:44:06;7.03;;;5.90;;
14247;SDS011;7208;49.826;6.004;2022-11-20T01:46:33;5.97;;;5.43;;
14247;SDS011;7208;49.826;6.004;2022-11-20T01:49:09;6.50;;;5.90;;
14247;SDS011;7208;49.826;6.004;2022-11-20T01:51:47;6.70;;;6.03;;
14247;SDS011;7208;49.826;6.004;2022-11-20T01:54:17;7.47;;;5.70;;
14247;SDS011;7208;49.826;6.004;2022-11-20T01:56:45;6.77;;;5.57;;
14247;SDS011;7208;49.826;6.004;2022-11-20T01:59:13;4.63;;;4.10;;
14247;SDS011;7208;49.826;6.004;2022-11-20T02:01:41;6.67;;;4.80;;
14247;SDS011;7208;49.826;6.004;2022-11-20T02:04:07;7.00;;;4.57;;
14247;SDS011;7208;49.826;6.004;2022-11-20T02:06:44;4.83;;;4.33;;
14247;SDS011;7208;49.826;6.004;2022-11-20T02:09:11;4.30;;;3.67;;
14247;SDS011;7208;49.826;6.004;2022-11-20T02:11:37;4.47;;;4.07;;
14247;SDS011;7208;49.826;6.004;2022-11-20T02:14:03;5.20;;;4.57;;
14247;SDS011;7208;49.826;6.004;2022-11-20T02:16:30;4.17;;;3.77;;
14247;SDS011;7208;49.826;6.004;2022-11-20T02:18:57;4.67;;;4.27;;
14247;SDS011;7208;49.826;6.004;2022-11-20T02:21:38;4.47;;;3.93;;
14247;SDS011;7208;49.826;6.004;2022-11-20T02:26:44;4.27;;;3.93;;
14247;SDS011;7208;49.826;6.004;2022-11-20T02:29:12;4.83;;;4.43;;
14247;SDS011;7208;49.826;6.004;2022-11-20T02:31:40;5.40;;;4.90;;
14247;SDS011;7208;49.826;6.004;2022-11-20T02:34:07;6.00;;;5.50;;
14247;SDS011;7208;49.826;6.004;2022-11-20T02:36:33;4.80;;;4.30;;
14247;SDS011;7208;49.826;6.004;2022-11-20T02:39:00;4.93;;;3.40;;
14247;SDS011;7208;49.826;6.004;2022-11-20T02:41:44;4.27;;;3.87;;
14247;SDS011;7208;49.826;6.004;2022-11-20T02:44:10;4.30;;;3.93;;
14247;SDS011;7208;49.826;6.004;2022-11-20T02:46:36;5.43;;;4.27;;
14247;SDS011;7208;49.826;6.004;2022-11-20T02:49:03;4.33;;;3.93;;
14247;SDS011;7208;49.826;6.004;2022-11-20T02:51:29;4.13;;;3.73;;
14247;SDS011;7208;49.826;6.004;2022-11-20T02:53:55;4.23;;;3.93;;
14247;SDS011;7208;49.826;6.004;2022-11-20T02:56:21;4.47;;;3.90;;
14247;SDS011;7208;49.826;6.004;2022-11-20T02:58:48;5.07;;;4.60;;
14247;SDS011;7208;49.826;6.004;2022-11-20T03:01:14;5.00;;;4.60;;
14247;SDS011;7208;49.826;6.004;2022-11-20T03:03:40;6.57;;;4.80;;
14247;SDS011;7208;49.826;6.004;2022-11-20T03:06:06;5.20;;;4.70;;
14247;SDS011;7208;49.826;6.004;2022-11-20T03:08:32;6.03;;;4.27;;
14247;SDS011;7208;49.826;6.004;2022-11-20T03:11:02;5.10;;;4.27;;
14247;SDS011;7208;49.826;6.004;2022-11-20T03:13:28;4.97;;;4.47;;
14247;SDS011;7208;49.826;6.004;2022-11-20T03:15:54;4.97;;;4.10;;
14247;SDS011;7208;49.826;6.004;2022-11-20T03:18:20;5.17;;;4.67;;
14247;SDS011;7208;49.826;6.004;2022-11-20T03:20:46;5.77;;;4.57;;
14247;SDS011;7208;49.826;6.004;2022-11-20T03:23:12;4.97;;;4.47;;
14247;SDS011;7208;49.826;6.004;2022-11-20T03:25:38;8.47;;;5.17;;
14247;SDS011;7208;49.826;6.004;2022-11-20T03:28:04;5.63;;;5.03;;
14247;SDS011;7208;49.826;6.004;2022-11-20T03:30:30;6.83;;;5.13;;
14247;SDS011;7208;49.826;6.004;2022-11-20T03:32:56;5.03;;;4.63;;
14247;SDS011;7208;49.826;6.004;2022-11-20T03:35:22;5.83;;;5.27;;
14247;SDS011;7208;49.826;6.004;2022-11-20T03:37:48;6.10;;;5.50;;
14247;SDS011;7208;49.826;6.004;2022-11-20T03:40:14;7.03;;;6.33;;
14247;SDS011;7208;49.826;6.004;2022-11-20T03:42:40;6.63;;;5.97;;
14247;SDS011;7208;49.826;6.004;2022-11-20T03:45:13;8.37;;;5.83;;
14247;SDS011;7208;49.826;6.004;2022-11-20T03:47:39;7.57;;;6.50;;
14247;SDS011;7208;49.826;6.004;2022-11-20T03:50:06;6.33;;;5.60;;
14247;SDS011;7208;49.826;6.004;2022-11-20T03:52:32;6.80;;;6.20;;
14247;SDS011;7208;49.826;6.004;2022-11-20T03:54:58;6.30;;;5.70;;
14247;SDS011;7208;49.826;6.004;2022-11-20T03:57:24;6.60;;;5.90;;
14247;SDS011;7208;49.826;6.004;2022-11-20T03:59:50;6.67;;;6.00;;
14247;SDS011;7208;49.826;6.004;2022-11-20T04:02:16;7.10;;;6.40;;
14247;SDS011;7208;49.826;6.004;2022-11-20T04:04:42;8.10;;;7.13;;
14247;SDS011;7208;49.826;6.004;2022-11-20T04:07:08;7.97;;;7.03;;
14247;SDS011;7208;49.826;6.004;2022-11-20T04:09:34;9.97;;;7.63;;
14247;SDS011;7208;49.826;6.004;2022-11-20T04:12:00;8.37;;;7.17;;
14247;SDS011;7208;49.826;6.004;2022-11-20T04:14:26;10.30;;;8.10;;
14247;SDS011;7208;49.826;6.004;2022-11-20T04:16:52;11.40;;;7.37;;
14247;SDS011;7208;49.826;6.004;2022-11-20T04:19:18;11.87;;;9.07;;
14247;SDS011;7208;49.826;6.004;2022-11-20T04:21:44;9.50;;;8.20;;
14247;SDS011;7208;49.826;6.004;2022-11-20T04:24:10;9.70;;;8.57;;
14247;SDS011;7208;49.826;6.004;2022-11-20T04:26:36;12.97;;;9.17;;
14247;SDS011;7208;49.826;6.004;2022-11-20T04:29:03;10.90;;;8.77;;
14247;SDS011;7208;49.826;6.004;2022-11-20T04:31:30;10.47;;;8.50;;
14247;SDS011;7208;49.826;6.004;2022-11-20T04:34:00;9.77;;;7.57;;
14247;SDS011;7208;49.826;6.004;2022-11-20T04:36:27;11.07;;;8.40;;
14247;SDS011;7208;49.826;6.004;2022-11-20T04:38:54;11.77;;;9.17;;
14247;SDS011;7208;49.826;6.004;2022-11-20T04:41:21;16.03;;;9.57;;
14247;SDS011;7208;49.826;6.004;2022-11-20T04:43:47;11.37;;;8.50;;
14247;SDS011;7208;49.826;6.004;2022-11-20T04:46:14;10.17;;;8.80;;
14247;SDS011;7208;49.826;6.004;2022-11-20T04:48:40;10.73;;;8.13;;
14247;SDS011;7208;49.826;6.004;2022-11-20T04:51:06;12.53;;;8.23;;
14247;SDS011;7208;49.826;6.004;2022-11-20T04:53:32;9.50;;;8.10;;
14247;SDS011;7208;49.826;6.004;2022-11-20T04:55:59;10.10;;;8.03;;
14247;SDS011;7208;49.826;6.004;2022-11-20T04:58:25;10.53;;;8.77;;
14247;SDS011;7208;49.826;6.004;2022-11-20T05:00:51;9.70;;;8.17;;
14247;SDS011;7208;49.826;6.004;2022-11-20T05:03:17;9.23;;;8.03;;
14247;SDS011;7208;49.826;6.004;2022-11-20T05:05:43;9.60;;;8.60;;
14247;SDS011;7208;49.826;6.004;2022-11-20T05:08:09;12.80;;;9.10;;
14247;SDS011;7208;49.826;6.004;2022-11-20T05:10:35;11.67;;;8.87;;
14247;SDS011;7208;49.826;6.004;2022-11-20T05:13:01;15.47;;;8.93;;
14247;SDS011;7208;49.826;6.004;2022-11-20T05:15:27;11.77;;;9.87;;
14247;SDS011;7208;49.826;6.004;2022-11-20T05:17:53;10.77;;;9.27;;
14247;SDS011;7208;49.826;6.004;2022-11-20T05:20:19;14.00;;;10.17;;
14247;SDS011;7208;49.826;6.004;2022-11-20T05:22:45;12.40;;;9.93;;
14247;SDS011;7208;49.826;6.004;2022-11-20T05:25:11;13.43;;;10.30;;
14247;SDS011;7208;49.826;6.004;2022-11-20T05:27:37;11.33;;;9.43;;
14247;SDS011;7208;49.826;6.004;2022-11-20T05:30:04;13.30;;;8.80;;
14247;SDS011;7208;49.826;6.004;2022-11-20T05:32:30;13.77;;;9.23;;
14247;SDS011;7208;49.826;6.004;2022-11-20T05:34:56;11.73;;;9.33;;
14247;SDS011;7208;49.826;6.004;2022-11-20T05:37:22;10.47;;;8.77;;
14247;SDS011;7208;49.826;6.004;2022-11-20T05:39:48;11.40;;;8.27;;
14247;SDS011;7208;49.826;6.004;2022-11-20T05:42:14;12.43;;;9.40;;
14247;SDS011;7208;49.826;6.004;2022-11-20T05:44:56;11.10;;;9.83;;
14247;SDS011;7208;49.826;6.004;2022-11-20T05:47:22;13.10;;;10.40;;
14247;SDS011;7208;49.826;6.004;2022-11-20T05:49:48;11.73;;;9.57;;
14247;SDS011;7208;49.826;6.004;2022-11-20T05:52:14;12.87;;;9.90;;
14247;SDS011;7208;49.826;6.004;2022-11-20T05:54:40;12.37;;;10.20;;
14247;SDS011;7208;49.826;6.004;2022-11-20T05:57:06;12.93;;;8.87;;
14247;SDS011;7208;49.826;6.004;2022-11-20T05:59:32;11.07;;;9.10;;
14247;SDS011;7208;49.826;6.004;2022-11-20T06:01:58;12.20;;;9.03;;
14247;SDS011;7208;49.826;6.004;2022-11-20T06:04:24;11.20;;;9.00;;
14247;SDS011;7208;49.826;6.004;2022-11-20T06:06:50;14.37;;;8.90;;
14247;SDS011;7208;49.826;6.004;2022-11-20T06:09:16;10.90;;;8.80;;
14247;SDS011;7208;49.826;6.004;2022-11-20T06:11:42;11.47;;;9.70;;
14247;SDS011;7208;49.826;6.004;2022-11-20T06:14:08;12.10;;;9.40;;
14247;SDS011;7208;49.826;6.004;2022-11-20T06:16:34;12.37;;;10.30;;
14247;SDS011;7208;49.826;6.004;2022-11-20T06:19:00;13.07;;;9.97;;
14247;SDS011;7208;49.826;6.004;2022-11-20T06:21:26;13.27;;;10.20;;
14247;SDS011;7208;49.826;6.004;2022-11-20T06:23:52;11.70;;;8.83;;
14247;SDS011;7208;49.826;6.004;2022-11-20T06:26:20;10.90;;;9.23;;
14247;SDS011;7208;49.826;6.004;2022-11-20T06:28:46;9.97;;;8.80;;
14247;SDS011;7208;49.826;6.004;2022-11-20T06:31:13;8.90;;;7.97;;
14247;SDS011;7208;49.826;6.004;2022-11-20T06:33:39;8.27;;;7.10;;
14247;SDS011;7208;49.826;6.004;2022-11-20T06:36:05;9.77;;;7.40;;
14247;SDS011;7208;49.826;6.004;2022-11-20T06:38:31;9.67;;;8.77;;
14247;SDS011;7208;49.826;6.004;2022-11-20T06:40:58;10.20;;;7.70;;
14247;SDS011;7208;49.826;6.004;2022-11-20T06:43:24;8.63;;;7.20;;
14247;SDS011;7208;49.826;6.004;2022-11-20T06:45:54;8.00;;;7.20;;
14247;SDS011;7208;49.826;6.004;2022-11-20T06:48:20;8.87;;;7.13;;
14247;SDS011;7208;49.826;6.004;2022-11-20T06:50:46;9.30;;;7.17;;
14247;SDS011;7208;49.826;6.004;2022-11-20T06:53:12;8.40;;;7.33;;
14247;SDS011;7208;49.826;6.004;2022-11-20T06:55:41;8.13;;;6.63;;
14247;SDS011;7208;49.826;6.004;2022-11-20T06:58:07;7.37;;;6.60;;
14247;SDS011;7208;49.826;6.004;2022-11-20T07:00:33;6.67;;;5.90;;
14247;SDS011;7208;49.826;6.004;2022-11-20T07:03:02;8.00;;;6.53;;
14247;SDS011;7208;49.826;6.004;2022-11-20T07:05:28;7.43;;;6.10;;
14247;SDS011;7208;49.826;6.004;2022-11-20T07:07:55;7.60;;;6.47;;
14247;SDS011;7208;49.826;6.004;2022-11-20T07:10:21;9.37;;;7.13;;
14247;SDS011;7208;49.826;6.004;2022-11-20T07:12:51;7.87;;;6.00;;
14247;SDS011;7208;49.826;6.004;2022-11-20T07:15:17;9.83;;;7.23;;
14247;SDS011;7208;49.826;6.004;2022-11-20T07:17:44;7.63;;;6.83;;
14247;SDS011;7208;49.826;6.004;2022-11-20T07:20:10;7.57;;;6.23;;
14247;SDS011;7208;49.826;6.004;2022-11-20T07:22:36;7.20;;;6.50;;
14247;SDS011;7208;49.826;6.004;2022-11-20T07:25:02;7.13;;;6.40;;
14247;SDS011;7208;49.826;6.004;2022-11-20T07:27:28;6.67;;;5.80;;
14247;SDS011;7208;49.826;6.004;2022-11-20T07:29:54;7.10;;;6.30;;
14247;SDS011;7208;49.826;6.004;2022-11-20T07:32:21;8.60;;;6.63;;
14247;SDS011;7208;49.826;6.004;2022-11-20T07:34:47;7.27;;;6.43;;
14247;SDS011;7208;49.826;6.004;2022-11-20T07:37:13;7.00;;;6.30;;
14247;SDS011;7208;49.826;6.004;2022-11-20T07:39:39;8.17;;;6.17;;
14247;SDS011;7208;49.826;6.004;2022-11-20T07:42:08;5.87;;;5.27;;
14247;SDS011;7208;49.826;6.004;2022-11-20T07:44:35;7.10;;;5.73;;
14247;SDS011;7208;49.826;6.004;2022-11-20T07:47:01;7.43;;;6.73;;
14247;SDS011;7208;49.826;6.004;2022-11-20T07:49:27;6.67;;;5.63;;
14247;SDS011;7208;49.826;6.004;2022-11-20T07:51:53;7.13;;;5.57;;
14247;SDS011;7208;49.826;6.004;2022-11-20T07:54:22;6.27;;;5.77;;
14247;SDS011;7208;49.826;6.004;2022-11-20T07:56:49;7.77;;;6.53;;
14247;SDS011;7208;49.826;6.004;2022-11-20T07:59:15;6.27;;;5.67;;
14247;SDS011;7208;49.826;6.004;2022-11-20T08:01:41;7.73;;;5.40;;
14247;SDS011;7208;49.826;6.004;2022-11-20T08:04:08;5.97;;;5.37;;
14247;SDS011;7208;49.826;6.004;2022-11-20T08:06:34;6.50;;;5.90;;
14247;SDS011;7208;49.826;6.004;2022-11-20T08:09:00;6.80;;;6.10;;
14247;SDS011;7208;49.826;6.004;2022-11-20T08:11:26;7.37;;;5.30;;
14247;SDS011;7208;49.826;6.004;2022-11-20T08:14:11;6.47;;;5.30;;
14247;SDS011;7208;49.826;6.004;2022-11-20T08:16:37;6.90;;;5.77;;
14247;SDS011;7208;49.826;6.004;2022-11-20T08:19:03;6.33;;;5.27;;
14247;SDS011;7208;49.826;6.004;2022-11-20T08:21:30;6.70;;;5.57;;
14247;SDS011;7208;49.826;6.004;2022-11-20T08:23:56;7.27;;;5.50;;
14247;SDS011;7208;49.826;6.004;2022-11-20T08:26:22;7.00;;;5.90;;
14247;SDS011;7208;49.826;6.004;2022-11-20T08:28:48;5.73;;;5.13;;
14247;SDS011;7208;49.826;6.004;2022-11-20T08:31:14;6.27;;;5.67;;
14247;SDS011;7208;49.826;6.004;2022-11-20T08:33:40;7.67;;;6.17;;
14247;SDS011;7208;49.826;6.004;2022-11-20T08:36:06;5.80;;;5.20;;
14247;SDS011;7208;49.826;6.004;2022-11-20T08:38:33;6.40;;;4.40;;
14247;SDS011;7208;49.826;6.004;2022-11-20T08:40:59;3.63;;;3.33;;
14247;SDS011;7208;49.826;6.004;2022-11-20T08:43:44;4.77;;;3.87;;
14247;SDS011;7208;49.826;6.004;2022-11-20T08:46:10;4.27;;;3.87;;
14247;SDS011;7208;49.826;6.004;2022-11-20T08:48:36;4.07;;;3.67;;
14247;SDS011;7208;49.826;6.004;2022-11-20T08:51:02;4.97;;;3.37;;
14247;SDS011;7208;49.826;6.004;2022-11-20T08:53:28;4.67;;;4.27;;
14247;SDS011;7208;49.826;6.004;2022-11-20T08:55:56;4.27;;;3.63;;
14247;SDS011;7208;49.826;6.004;2022-11-20T08:58:22;5.77;;;4.07;;
14247;SDS011;7208;49.826;6.004;2022-11-20T09:00:48;4.27;;;3.87;;
14247;SDS011;7208;49.826;6.004;2022-11-20T09:03:14;4.77;;;4.23;;
14247;SDS011;7208;49.826;6.004;2022-11-20T09:05:40;4.40;;;4.07;;
14247;SDS011;7208;49.826;6.004;2022-11-20T09:08:06;5.37;;;4.53;;
14247;SDS011;7208;49.826;6.004;2022-11-20T09:10:32;4.57;;;4.17;;
14247;SDS011;7208;49.826;6.004;2022-11-20T09:12:58;5.43;;;4.00;;
14247;SDS011;7208;49.826;6.004;2022-11-20T09:15:25;3.70;;;3.40;;
14247;SDS011;7208;49.826;6.004;2022-11-20T09:17:51;5.47;;;3.43;;
14247;SDS011;7208;49.826;6.004;2022-11-20T09:20:17;3.93;;;3.37;;
14247;SDS011;7208;49.826;6.004;2022-11-20T09:22:44;5.30;;;3.83;;
14247;SDS011;7208;49.826;6.004;2022-11-20T09:25:10;4.13;;;3.83;;
14247;SDS011;7208;49.826;6.004;2022-11-20T09:27:36;3.07;;;2.37;;
14247;SDS011;7208;49.826;6.004;2022-11-20T09:30:02;2.90;;;2.13;;
14247;SDS011;7208;49.826;6.004;2022-11-20T09:32:28;3.20;;;1.97;;
14247;SDS011;7208;49.826;6.004;2022-11-20T09:34:54;2.30;;;1.73;;
14247;SDS011;7208;49.826;6.004;2022-11-20T09:37:20;3.33;;;2.37;;
14247;SDS011;7208;49.826;6.004;2022-11-20T09:39:46;2.93;;;2.67;;
14247;SDS011;7208;49.826;6.004;2022-11-20T09:42:15;2.30;;;1.77;;
14247;SDS011;7208;49.826;6.004;2022-11-20T09:47:17;4.13;;;2.50;;
14247;SDS011;7208;49.826;6.004;2022-11-20T09:52:37;4.43;;;2.70;;
14247;SDS011;7208;49.826;6.004;2022-11-20T09:55:10;4.50;;;2.43;;
14247;SDS011;7208;49.826;6.004;2022-11-20T09:57:39;4.57;;;2.63;;
14247;SDS011;7208;49.826;6.004;2022-11-20T10:00:09;3.37;;;2.90;;
14247;SDS011;7208;49.826;6.004;2022-11-20T10:02:57;4.00;;;3.60;;
14247;SDS011;7208;49.826;6.004;2022-11-20T10:05:30;4.80;;;3.67;;
14247;SDS011;7208;49.826;6.004;2022-11-20T10:10:44;3.97;;;3.63;;
14247;SDS011;7208;49.826;6.004;2022-11-20T10:21:15;2.10;;;1.87;;
14247;SDS011;7208;49.826;6.004;2022-11-20T10:29:01;2.03;;;1.80;;
14247;SDS011;7208;49.826;6.004;2022-11-20T10:31:35;2.30;;;1.97;;
14247;SDS011;7208;49.826;6.004;2022-11-20T10:34:14;4.33;;;1.87;;
14247;SDS011;7208;49.826;6.004;2022-11-20T10:36:47;3.53;;;2.00;;
14247;SDS011;7208;49.826;6.004;2022-11-20T10:41:53;2.13;;;1.83;;
14247;SDS011;7208;49.826;6.004;2022-11-20T10:44:20;1.87;;;1.07;;
14247;SDS011;7208;49.826;6.004;2022-11-20T10:47:21;2.70;;;2.00;;
14247;SDS011;7208;49.826;6.004;2022-11-20T10:49:51;2.43;;;1.70;;
14247;SDS011;7208;49.826;6.004;2022-11-20T10:54:59;2.40;;;1.43;;
14247;SDS011;7208;49.826;6.004;2022-11-20T11:00:32;3.17;;;2.10;;
14247;SDS011;7208;49.826;6.004;2022-11-20T11:02:58;4.73;;;2.00;;
14247;SDS011;7208;49.826;6.004;2022-11-20T11:05:33;2.13;;;1.77;;
14247;SDS011;7208;49.826;6.004;2022-11-20T11:08:00;3.00;;;1.63;;
14247;SDS011;7208;49.826;6.004;2022-11-20T11:12:58;3.30;;;2.30;;
14247;SDS011;7208;49.826;6.004;2022-11-20T11:15:28;2.30;;;1.33;;
14247;SDS011;7208;49.826;6.004;2022-11-20T11:17:55;3.13;;;1.93;;
14247;SDS011;7208;49.826;6.004;2022-11-20T11:20:25;1.83;;;1.03;;
14247;SDS011;7208;49.826;6.004;2022-11-20T11:22:56;3.23;;;1.37;;
14247;SDS011;7208;49.826;6.004;2022-11-20T11:27:52;1.60;;;1.37;;
14247;SDS011;7208;49.826;6.004;2022-11-20T11:30:20;1.40;;;1.00;;
14247;SDS011;7208;49.826;6.004;2022-11-20T11:32:46;3.80;;;1.47;;
14247;SDS011;7208;49.826;6.004;2022-11-20T11:35:23;3.17;;;1.30;;
14247;SDS011;7208;49.826;6.004;2022-11-20T11:37:49;5.50;;;1.93;;
14247;SDS011;7208;49.826;6.004;2022-11-20T11:40:17;1.30;;;1.20;;
14247;SDS011;7208;49.826;6.004;2022-11-20T11:42:46;3.27;;;1.30;;
14247;SDS011;7208;49.826;6.004;2022-11-20T11:45:15;2.57;;;1.40;;
14247;SDS011;7208;49.826;6.004;2022-11-20T11:52:40;3.00;;;1.10;;
14247;SDS011;7208;49.826;6.004;2022-11-20T11:55:07;2.60;;;1.50;;
14247;SDS011;7208;49.826;6.004;2022-11-20T12:00:17;3.83;;;1.50;;
14247;SDS011;7208;49.826;6.004;2022-11-20T12:05:18;4.97;;;1.23;;
14247;SDS011;7208;49.826;6.004;2022-11-20T12:07:49;2.67;;;1.53;;
14247;SDS011;7208;49.826;6.004;2022-11-20T12:13:02;2.13;;;1.23;;
14247;SDS011;7208;49.826;6.004;2022-11-20T12:15:30;2.93;;;1.17;;
14247;SDS011;7208;49.826;6.004;2022-11-20T12:17:57;1.40;;;1.30;;
14247;SDS011;7208;49.826;6.004;2022-11-20T12:20:24;1.37;;;0.97;;
14247;SDS011;7208;49.826;6.004;2022-11-20T12:23:01;2.10;;;1.30;;
14247;SDS011;7208;49.826;6.004;2022-11-20T12:25:32;1.73;;;1.43;;
14247;SDS011;7208;49.826;6.004;2022-11-20T12:30:50;1.10;;;1.00;;
14247;SDS011;7208;49.826;6.004;2022-11-20T12:43:21;1.73;;;1.10;;
14247;SDS011;7208;49.826;6.004;2022-11-20T12:51:25;2.43;;;1.10;;
14247;SDS011;7208;49.826;6.004;2022-11-20T13:01:40;2.30;;;1.27;;
14247;SDS011;7208;49.826;6.004;2022-11-20T13:06:38;1.57;;;0.83;;
14247;SDS011;7208;49.826;6.004;2022-11-20T13:09:08;2.60;;;1.00;;
14247;SDS011;7208;49.826;6.004;2022-11-20T13:11:40;3.40;;;1.23;;
14247;SDS011;7208;49.826;6.004;2022-11-20T13:19:14;2.97;;;2.37;;
14247;SDS011;7208;49.826;6.004;2022-11-20T13:21:41;4.33;;;1.73;;
14247;SDS011;7208;49.826;6.004;2022-11-20T13:27:04;2.40;;;1.53;;
14247;SDS011;7208;49.826;6.004;2022-11-20T13:29:31;2.53;;;2.33;;
14247;SDS011;7208;49.826;6.004;2022-11-20T13:34:39;3.50;;;2.27;;
14247;SDS011;7208;49.826;6.004;2022-11-20T13:37:05;3.17;;;1.10;;
14247;SDS011;7208;49.826;6.004;2022-11-20T13:39:36;4.67;;;4.30;;
14247;SDS011;7208;49.826;6.004;2022-11-20T13:42:20;0.97;;;0.97;;
14247;SDS011;7208;49.826;6.004;2022-11-20T13:45:00;4.20;;;1.23;;
14247;SDS011;7208;49.826;6.004;2022-11-20T13:47:27;2.70;;;1.07;;
14247;SDS011;7208;49.826;6.004;2022-11-20T13:49:54;2.80;;;1.40;;
14247;SDS011;7208;49.826;6.004;2022-11-20T14:00:17;3.90;;;1.00;;
14247;SDS011;7208;49.826;6.004;2022-11-20T14:02:47;2.30;;;1.00;;
14247;SDS011;7208;49.826;6.004;2022-11-20T14:05:20;1.57;;;0.90;;
14247;SDS011;7208;49.826;6.004;2022-11-20T14:07:48;3.27;;;1.70;;
14247;SDS011;7208;49.826;6.004;2022-11-20T14:10:47;2.67;;;0.73;;
14247;SDS011;7208;49.826;6.004;2022-11-20T14:13:12;3.70;;;1.20;;
14247;SDS011;7208;49.826;6.004;2022-11-20T14:15:41;1.23;;;0.97;;
14247;SDS011;7208;49.826;6.004;2022-11-20T14:18:14;1.93;;;1.50;;
14247;SDS011;7208;49.826;6.004;2022-11-20T14:20:41;3.13;;;1.00;;
14247;SDS011;7208;49.826;6.004;2022-11-20T14:23:09;2.27;;;1.50;;
14247;SDS011;7208;49.826;6.004;2022-11-20T14:25:35;1.40;;;1.30;;
14247;SDS011;7208;49.826;6.004;2022-11-20T14:28:02;2.73;;;1.17;;
14247;SDS011;7208;49.826;6.004;2022-11-20T14:30:37;2.33;;;1.03;;
14247;SDS011;7208;49.826;6.004;2022-11-20T14:33:03;2.27;;;1.10;;
14247;SDS011;7208;49.826;6.004;2022-11-20T14:35:33;2.07;;;1.27;;
14247;SDS011;7208;49.826;6.004;2022-11-20T14:38:00;3.13;;;1.20;;
14247;SDS011;7208;49.826;6.004;2022-11-20T14:40:34;2.40;;;1.40;;
14247;SDS011;7208;49.826;6.004;2022-11-20T14:43:00;1.03;;;1.03;;
14247;SDS011;7208;49.826;6.004;2022-11-20T14:45:27;2.00;;;1.10;;
14247;SDS011;7208;49.826;6.004;2022-11-20T14:47:54;4.53;;;1.37;;
14247;SDS011;7208;49.826;6.004;2022-11-20T14:50:24;3.87;;;1.10;;
14247;SDS011;7208;49.826;6.004;2022-11-20T14:52:58;2.30;;;1.30;;
14247;SDS011;7208;49.826;6.004;2022-11-20T14:58:22;1.20;;;1.20;;
14247;SDS011;7208;49.826;6.004;2022-11-20T15:00:59;3.03;;;1.20;;
14247;SDS011;7208;49.826;6.004;2022-11-20T15:03:33;1.27;;;1.00;;
14247;SDS011;7208;49.826;6.004;2022-11-20T15:05:59;2.60;;;1.33;;
14247;SDS011;7208;49.826;6.004;2022-11-20T15:08:25;1.13;;;1.07;;
14247;SDS011;7208;49.826;6.004;2022-11-20T15:10:51;1.10;;;0.93;;
14247;SDS011;7208;49.826;6.004;2022-11-20T15:13:19;2.63;;;1.33;;
14247;SDS011;7208;49.826;6.004;2022-11-20T15:15:50;1.23;;;0.90;;
14247;SDS011;7208;49.826;6.004;2022-11-20T15:18:50;1.10;;;1.00;;
14247;SDS011;7208;49.826;6.004;2022-11-20T15:21:10;1.10;;;1.10;;
14247;SDS011;7208;49.826;6.004;2022-11-20T15:23:36;1.17;;;1.00;;
14247;SDS011;7208;49.826;6.004;2022-11-20T15:26:04;2.20;;;0.97;;
14247;SDS011;7208;49.826;6.004;2022-11-20T15:28:31;1.10;;;1.10;;
14247;SDS011;7208;49.826;6.004;2022-11-20T15:30:58;1.63;;;1.07;;
14247;SDS011;7208;49.826;6.004;2022-11-20T15:33:24;2.17;;;0.80;;
14247;SDS011;7208;49.826;6.004;2022-11-20T15:35:50;0.93;;;0.90;;
14247;SDS011;7208;49.826;6.004;2022-11-20T15:38:16;0.93;;;0.80;;
14247;SDS011;7208;49.826;6.004;2022-11-20T15:40:42;2.70;;;0.80;;
14247;SDS011;7208;49.826;6.004;2022-11-20T15:43:08;0.80;;;0.80;;
14247;SDS011;7208;49.826;6.004;2022-11-20T15:45:38;2.03;;;1.00;;
14247;SDS011;7208;49.826;6.004;2022-11-20T15:48:05;1.37;;;0.83;;
14247;SDS011;7208;49.826;6.004;2022-11-20T15:50:36;2.30;;;0.90;;
14247;SDS011;7208;49.826;6.004;2022-11-20T15:53:02;2.60;;;1.10;;
14247;SDS011;7208;49.826;6.004;2022-11-20T15:55:29;0.80;;;0.80;;
14247;SDS011;7208;49.826;6.004;2022-11-20T15:57:55;0.60;;;0.60;;
14247;SDS011;7208;49.826;6.004;2022-11-20T16:00:21;1.30;;;0.63;;
14247;SDS011;7208;49.826;6.004;2022-11-20T16:02:47;3.27;;;1.20;;
14247;SDS011;7208;49.826;6.004;2022-11-20T16:05:13;1.10;;;0.90;;
14247;SDS011;7208;49.826;6.004;2022-11-20T16:07:42;1.17;;;0.70;;
14247;SDS011;7208;49.826;6.004;2022-11-20T16:10:08;0.97;;;0.97;;
14247;SDS011;7208;49.826;6.004;2022-11-20T16:12:34;1.93;;;1.83;;
14247;SDS011;7208;49.826;6.004;2022-11-20T16:15:19;13.20;;;12.07;;
14247;SDS011;7208;49.826;6.004;2022-11-20T16:18:03;3.37;;;3.07;;
14247;SDS011;7208;49.826;6.004;2022-11-20T16:20:29;1.10;;;1.07;;
14247;SDS011;7208;49.826;6.004;2022-11-20T16:22:55;1.33;;;1.23;;
14247;SDS011;7208;49.826;6.004;2022-11-20T16:25:21;2.73;;;2.47;;
14247;SDS011;7208;49.826;6.004;2022-11-20T16:27:48;12.37;;;11.10;;
14247;SDS011;7208;49.826;6.004;2022-11-20T16:30:14;2.40;;;2.10;;
14247;SDS011;7208;49.826;6.004;2022-11-20T16:32:40;1.80;;;1.57;;
14247;SDS011;7208;49.826;6.004;2022-11-20T16:35:06;4.80;;;4.40;;
14247;SDS011;7208;49.826;6.004;2022-11-20T16:37:32;1.73;;;1.63;;
14247;SDS011;7208;49.826;6.004;2022-11-20T16:39:58;0.90;;;0.90;;
14247;SDS011;7208;49.826;6.004;2022-11-20T16:42:24;3.23;;;2.93;;
14247;SDS011;7208;49.826;6.004;2022-11-20T16:44:50;7.00;;;6.40;;